Time;durP1;ratioP1;P1;durP2;ratioP2;P2;SDS_P1;SDS_P2;PMS_P1;PMS_P2;Temp;Humidity;BMP_temperature;BMP_pressure;BME280_temperature;BME280_humidity;BME280_pressure;Samples;Min_cycle;Max_cycle;Signal;HPM_P1;HPM_P2
2021/12/04 00:02:09;;;;;;;8.80;5.70;;;;;;;2.02;100.00;97860.75;5092570;28;20231;-81
2021/12/04 00:04:41;;;;;;;8.13;6.20;;;;;;;2.00;100.00;97862.63;5089611;28;20225;-82
2021/12/04 00:07:11;;;;;;;10.27;6.07;;;;;;;2.02;100.00;97866.00;5092505;28;20301;-81
2021/12/04 00:09:39;;;;;;;11.97;6.07;;;;;;;1.99;100.00;97863.53;5088178;28;20196;-81
2021/12/04 00:12:08;;;;;;;7.87;5.80;;;;;;;1.99;100.00;97855.72;5092338;28;20187;-81
2021/12/04 00:14:38;;;;;;;10.57;6.00;;;;;;;2.07;100.00;97848.34;5087430;28;20191;-81
2021/12/04 00:17:09;;;;;;;8.70;6.30;;;;;;;2.05;100.00;97836.28;5089777;28;20234;-81
2021/12/04 00:19:38;;;;;;;9.23;6.23;;;;;;;1.98;100.00;97833.97;5106555;27;20243;-82
2021/12/04 00:22:07;;;;;;;12.50;6.30;;;;;;;2.06;100.00;97833.59;5151834;27;20264;-83
2021/12/04 00:24:36;;;;;;;10.63;6.53;;;;;;;1.93;100.00;97819.47;5146577;27;20213;-81
2021/12/04 00:27:06;;;;;;;10.53;6.70;;;;;;;1.95;100.00;97815.03;5120124;27;20198;-81
2021/12/04 00:29:34;;;;;;;9.53;6.90;;;;;;;1.93;100.00;97812.50;5149760;27;20200;-81
2021/12/04 00:32:09;;;;;;;10.80;6.80;;;;;;;1.92;100.00;97815.16;5159531;27;20189;-81
2021/12/04 00:34:43;;;;;;;9.17;6.20;;;;;;;1.93;100.00;97807.28;5161897;27;20201;-80
2021/12/04 00:37:34;;;;;;;10.10;7.23;;;;;;;1.92;100.00;97812.56;5162027;27;20198;-81
2021/12/04 00:51:25;;;;;;;11.33;7.67;;;;;;;1.85;100.00;97792.94;5143218;27;20193;-82
2021/12/04 00:53:54;;;;;;;11.97;7.90;;;;;;;1.86;100.00;97785.00;5152325;27;20197;-81
2021/12/04 00:56:22;;;;;;;14.90;8.70;;;;;;;1.93;100.00;97788.13;5145096;27;20200;-81
2021/12/04 00:58:51;;;;;;;12.67;7.73;;;;;;;1.89;100.00;97799.66;5153219;27;20193;-81
2021/12/04 01:01:20;;;;;;;10.70;8.03;;;;;;;1.88;100.00;97782.31;5148837;27;20726;-81
2021/12/04 01:03:49;;;;;;;13.90;8.57;;;;;;;1.91;100.00;97776.94;5156146;27;20206;-81
2021/12/04 01:06:17;;;;;;;11.77;8.60;;;;;;;1.87;100.00;97780.63;5151922;27;20221;-82
2021/12/04 01:08:47;;;;;;;12.40;9.00;;;;;;;1.86;100.00;97784.16;5147263;27;20197;-82
2021/12/04 01:11:15;;;;;;;16.83;9.83;;;;;;;1.83;100.00;97785.16;5085203;28;20203;-81
2021/12/04 01:13:43;;;;;;;15.00;9.37;;;;;;;1.81;100.00;97781.78;5092172;28;20712;-82
2021/12/04 01:16:12;;;;;;;16.40;8.70;;;;;;;1.92;100.00;97789.91;5084092;28;20196;-81
2021/12/04 01:18:40;;;;;;;13.23;9.10;;;;;;;1.84;100.00;97789.47;5092493;28;20192;-81
2021/12/04 01:21:08;;;;;;;16.87;10.10;;;;;;;1.88;100.00;97785.78;5089367;28;20253;-82
2021/12/04 01:23:36;;;;;;;13.37;9.13;;;;;;;1.80;100.00;97774.88;5087636;28;20191;-82
2021/12/04 01:26:06;;;;;;;13.00;9.10;;;;;;;1.85;100.00;97775.50;5090541;28;20219;-82
2021/12/04 01:28:35;;;;;;;12.07;8.40;;;;;;;1.81;100.00;97766.13;5096968;27;20249;-81
2021/12/04 01:31:03;;;;;;;15.63;9.27;;;;;;;1.75;100.00;97765.59;5149940;27;20235;-82
2021/12/04 01:33:32;;;;;;;13.60;9.57;;;;;;;1.84;100.00;97755.53;5152681;27;20192;-82
2021/12/04 01:36:00;;;;;;;13.30;9.23;;;;;;;1.76;100.00;97756.84;5149670;27;20262;-82
2021/12/04 01:38:29;;;;;;;13.20;9.23;;;;;;;1.89;100.00;97763.97;5151569;27;20190;-82
2021/12/04 01:40:57;;;;;;;14.53;8.70;;;;;;;1.93;100.00;97765.50;5148795;27;20200;-81
2021/12/04 01:43:27;;;;;;;13.27;9.17;;;;;;;1.89;100.00;97750.06;5152418;27;20250;-82
2021/12/04 01:45:56;;;;;;;12.67;8.77;;;;;;;1.83;100.00;97735.56;5152567;27;20220;-82
2021/12/04 01:48:24;;;;;;;12.27;8.93;;;;;;;1.81;100.00;97740.03;5155678;27;20190;-81
2021/12/04 01:50:55;;;;;;;12.50;8.67;;;;;;;1.88;100.00;97732.72;5152226;27;20213;-82
2021/12/04 01:53:24;;;;;;;13.73;8.57;;;;;;;1.81;100.00;97737.41;5146946;27;20205;-82
2021/12/04 01:55:54;;;;;;;12.20;9.00;;;;;;;1.87;100.00;97734.50;5154131;27;20190;-82
2021/12/04 01:58:23;;;;;;;12.10;8.50;;;;;;;1.91;100.00;97735.16;5155097;27;20193;-82
2021/12/04 02:00:55;;;;;;;14.80;9.43;;;;;;;1.83;100.00;97730.34;5155154;27;20259;-82
2021/12/04 02:03:24;;;;;;;13.43;8.93;;;;;;;1.85;100.00;97725.06;5155374;27;20193;-82
2021/12/04 02:05:52;;;;;;;13.63;9.70;;;;;;;1.85;100.00;97722.44;5163539;27;20216;-82
2021/12/04 02:08:23;;;;;;;12.73;9.33;;;;;;;1.84;100.00;97724.22;5170987;27;20247;-81
2021/12/04 02:10:54;;;;;;;13.80;8.80;;;;;;;1.83;100.00;97721.66;5153950;27;20272;-81
2021/12/04 02:13:23;;;;;;;14.87;8.83;;;;;;;1.80;100.00;97722.69;5150601;27;20205;-81
2021/12/04 02:15:53;;;;;;;15.63;9.03;;;;;;;1.90;100.00;97720.44;5155422;27;20197;-81
2021/12/04 02:18:23;;;;;;;13.53;9.40;;;;;;;1.94;100.00;97717.59;5153716;27;20278;-81
2021/12/04 02:20:53;;;;;;;15.67;9.27;;;;;;;1.89;100.00;97716.97;5158230;27;20295;-81
2021/12/04 02:23:21;;;;;;;13.97;9.10;;;;;;;1.91;100.00;97709.06;5150849;27;20205;-81
2021/12/04 02:25:49;;;;;;;12.17;9.27;;;;;;;1.87;100.00;97705.78;5154692;27;20209;-82
2021/12/04 02:28:18;;;;;;;14.17;9.03;;;;;;;1.76;100.00;97696.84;5150930;27;20190;-82
2021/12/04 02:30:48;;;;;;;12.40;8.80;;;;;;;1.92;100.00;97697.69;5152248;27;20645;-81
2021/12/04 02:33:17;;;;;;;14.47;9.13;;;;;;;1.98;100.00;97693.00;5150262;27;20204;-81
2021/12/04 02:35:49;;;;;;;14.87;9.03;;;;;;;2.00;100.00;97685.09;5146412;27;20204;-81
2021/12/04 02:38:23;;;;;;;15.90;10.03;;;;;;;1.82;100.00;97676.44;5148357;27;20190;-82
2021/12/04 02:40:53;;;;;;;15.70;9.87;;;;;;;1.83;100.00;97669.47;5153851;27;20227;-82
2021/12/04 02:43:21;;;;;;;15.00;9.67;;;;;;;1.95;100.00;97672.28;5154844;27;20185;-81
2021/12/04 02:45:50;;;;;;;14.27;9.23;;;;;;;1.79;100.00;97663.56;5150562;27;20209;-81
2021/12/04 02:48:19;;;;;;;14.83;9.63;;;;;;;1.83;100.00;97659.88;5151648;27;20251;-82
2021/12/04 02:50:48;;;;;;;12.67;9.70;;;;;;;1.85;100.00;97650.22;5149335;27;20247;-81
2021/12/04 02:53:17;;;;;;;15.73;9.37;;;;;;;1.89;100.00;97656.09;5149479;27;20202;-82
2021/12/04 02:55:47;;;;;;;15.90;9.50;;;;;;;1.87;100.00;97650.13;5146073;27;20198;-82
2021/12/04 02:58:16;;;;;;;12.67;9.50;;;;;;;1.81;100.00;97643.44;5144320;27;20198;-82
2021/12/04 03:00:48;;;;;;;18.17;9.50;;;;;;;1.85;100.00;97641.53;5150606;27;20226;-82
2021/12/04 03:03:19;;;;;;;14.67;9.30;;;;;;;1.80;100.00;97635.72;5154675;27;20231;-82
2021/12/04 03:05:50;;;;;;;15.63;9.63;;;;;;;1.80;100.00;97630.47;5148164;27;20309;-81
2021/12/04 03:08:25;;;;;;;13.83;9.43;;;;;;;1.89;100.00;97632.59;5150199;27;20194;-81
2021/12/04 03:10:57;;;;;;;16.60;9.17;;;;;;;1.76;100.00;97624.59;5149441;27;20193;-82
2021/12/04 03:13:25;;;;;;;15.00;9.37;;;;;;;1.83;100.00;97628.53;5150975;27;20240;-82
2021/12/04 03:15:58;;;;;;;13.97;10.13;;;;;;;1.86;100.00;97623.19;5115139;28;20187;-82
2021/12/04 03:18:28;;;;;;;14.97;8.97;;;;;;;1.82;100.00;97624.25;5109213;28;20201;-81
2021/12/04 03:20:58;;;;;;;13.07;9.07;;;;;;;1.66;100.00;97624.25;5109203;28;20226;-82
2021/12/04 03:23:31;;;;;;;13.60;8.97;;;;;;;1.75;100.00;97614.25;5109579;28;20195;-82
2021/12/04 03:26:04;;;;;;;15.40;9.20;;;;;;;1.83;100.00;97620.72;5107957;28;20195;-81
2021/12/04 03:28:32;;;;;;;14.33;9.13;;;;;;;1.81;100.00;97609.53;5114735;28;20195;-81
2021/12/04 03:31:05;;;;;;;11.07;8.87;;;;;;;1.64;100.00;97614.78;5111840;28;20199;-81
2021/12/04 03:41:52;;;;;;;10.30;8.00;;;;;;;1.45;100.00;97594.06;5154655;27;20208;-81
2021/12/04 03:44:20;;;;;;;10.20;7.90;;;;;;;1.42;100.00;97592.44;5155848;27;20223;-81
2021/12/04 03:46:48;;;;;;;9.50;7.63;;;;;;;1.35;100.00;97578.06;5157514;27;20213;-82
2021/12/04 03:49:17;;;;;;;10.97;7.80;;;;;;;1.21;100.00;97574.47;5153534;27;20204;-81
2021/12/04 03:51:45;;;;;;;9.23;7.63;;;;;;;1.28;100.00;97578.47;5157445;27;20182;-81
2021/12/04 03:54:13;;;;;;;9.90;7.90;;;;;;;1.28;100.00;97581.91;5165103;27;20193;-81
2021/12/04 03:56:41;;;;;;;9.93;8.00;;;;;;;1.26;100.00;97582.91;5168166;27;20269;-81
2021/12/04 03:59:11;;;;;;;8.43;6.70;;;;;;;1.21;100.00;97566.66;5164080;27;20197;-81
2021/12/04 04:01:39;;;;;;;8.83;7.10;;;;;;;1.18;100.00;97572.03;5154309;27;20214;-81
2021/12/04 04:04:08;;;;;;;8.93;6.57;;;;;;;1.10;100.00;97572.44;5156269;27;20280;-81
2021/12/04 04:06:36;;;;;;;9.77;6.80;;;;;;;1.14;100.00;97568.72;5157041;27;20218;-82
2021/12/04 04:09:04;;;;;;;9.20;7.37;;;;;;;1.11;100.00;97569.75;5149424;27;20216;-81
2021/12/04 04:11:36;;;;;;;10.37;7.60;;;;;;;1.08;100.00;97562.09;5157110;27;20186;-81
2021/12/04 04:14:04;;;;;;;9.30;7.60;;;;;;;1.07;100.00;97568.22;5154144;27;20186;-81
2021/12/04 04:16:37;;;;;;;8.93;7.10;;;;;;;1.07;100.00;97562.19;5152261;27;20209;-82
2021/12/04 04:19:05;;;;;;;9.03;6.90;;;;;;;1.10;100.00;97568.06;5150954;27;20190;-82
2021/12/04 04:21:38;;;;;;;9.47;7.00;;;;;;;1.18;100.00;97564.22;5152234;27;20257;-82
2021/12/04 04:24:07;;;;;;;9.43;7.70;;;;;;;0.99;100.00;97557.34;5151082;27;20198;-81
2021/12/04 04:26:36;;;;;;;9.30;7.10;;;;;;;1.22;100.00;97556.16;5153973;27;20186;-82
2021/12/04 04:29:05;;;;;;;10.30;7.40;;;;;;;1.19;100.00;97555.47;5157031;27;20192;-82
2021/12/04 04:31:36;;;;;;;10.77;8.20;;;;;;;1.05;100.00;97564.00;5156931;27;20636;-82
2021/12/04 04:34:07;;;;;;;9.50;7.73;;;;;;;1.13;100.00;97559.22;5153481;27;20197;-82
2021/12/04 04:36:49;;;;;;;8.83;7.23;;;;;;;1.11;100.00;97559.31;5156661;27;20648;-82
2021/12/04 04:39:37;;;;;;;8.90;7.43;;;;;;;1.10;100.00;97560.25;5151782;27;20185;-82
2021/12/04 04:58:53;;;;;;;6.27;5.30;;;;;;;1.11;100.00;97538.47;5156099;27;20189;-82
2021/12/04 05:01:41;;;;;;;5.57;4.97;;;;;;;1.01;100.00;97533.81;5151468;27;20229;-82
2021/12/04 05:12:30;;;;;;;5.40;4.40;;;;;;;0.96;100.00;97505.34;5176876;27;20198;-83
2021/12/04 05:15:01;;;;;;;5.43;4.63;;;;;;;0.98;100.00;97493.13;5156247;27;20190;-82
2021/12/04 05:17:42;;;;;;;5.33;4.80;;;;;;;1.04;100.00;97491.94;5152841;27;20208;-82
2021/12/04 05:20:19;;;;;;;5.43;4.50;;;;;;;1.11;100.00;97491.53;5150679;27;20276;-82
2021/12/04 05:22:48;;;;;;;5.97;4.97;;;;;;;1.10;100.00;97500.28;5149958;27;20200;-83
2021/12/04 05:25:18;;;;;;;5.43;4.50;;;;;;;1.02;100.00;97509.41;5149125;27;20479;-82
2021/12/04 05:27:46;;;;;;;5.57;4.97;;;;;;;1.05;100.00;97498.81;5149987;27;20213;-82
2021/12/04 05:30:14;;;;;;;5.87;4.63;;;;;;;1.09;100.00;97509.03;5151486;27;20205;-82
2021/12/04 05:32:43;;;;;;;5.13;4.63;;;;;;;1.11;100.00;97511.56;5155532;27;20190;-82
2021/12/04 05:35:12;;;;;;;5.93;4.80;;;;;;;1.02;100.00;97518.09;5152770;27;20185;-82
2021/12/04 05:37:40;;;;;;;6.00;5.07;;;;;;;1.04;100.00;97518.00;5155684;27;20243;-82
2021/12/04 05:40:12;;;;;;;5.97;4.93;;;;;;;1.10;100.00;97515.09;5154246;27;20222;-82
2021/12/04 05:42:41;;;;;;;5.63;4.93;;;;;;;1.18;100.00;97505.09;5131013;27;20193;-82
2021/12/04 05:45:17;;;;;;;7.53;6.10;;;;;;;0.99;100.00;97494.78;5159304;27;20204;-82
2021/12/04 05:47:49;;;;;;;6.77;5.47;;;;;;;0.94;100.00;97496.78;5153286;27;20231;-81
2021/12/04 05:50:37;;;;;;;6.27;5.40;;;;;;;0.98;100.00;97500.94;5150661;27;20198;-82
2021/12/04 05:53:17;;;;;;;6.77;5.53;;;;;;;1.07;100.00;97502.22;5150919;27;20197;-82
2021/12/04 05:55:53;;;;;;;6.40;5.50;;;;;;;1.13;100.00;97488.84;5149752;27;20186;-82
2021/12/04 05:58:24;;;;;;;6.97;5.83;;;;;;;1.15;100.00;97484.38;5149724;27;20272;-82
2021/12/04 06:00:56;;;;;;;7.20;5.40;;;;;;;1.20;100.00;97489.38;5151543;27;20401;-83
2021/12/04 06:03:25;;;;;;;7.13;6.40;;;;;;;1.09;100.00;97485.56;5152425;27;20197;-82
2021/12/04 06:05:55;;;;;;;6.70;5.80;;;;;;;1.05;100.00;97488.41;5155314;27;20197;-82
2021/12/04 06:08:23;;;;;;;7.97;5.90;;;;;;;1.06;100.00;97484.88;5150489;27;20228;-82
2021/12/04 06:10:53;;;;;;;6.30;5.60;;;;;;;1.02;100.00;97473.78;5150872;27;20182;-82
2021/12/04 06:13:21;;;;;;;8.80;6.83;;;;;;;1.01;100.00;97473.84;5152361;27;20200;-82
2021/12/04 06:15:49;;;;;;;11.13;6.27;;;;;;;1.09;100.00;97474.31;5094216;27;20212;-82
2021/12/04 06:18:18;;;;;;;8.90;6.47;;;;;;;1.02;100.00;97479.00;5155245;27;20190;-82
2021/12/04 06:23:34;;;;;;;9.47;7.33;;;;;;;1.12;100.00;97471.53;5155114;27;20200;-82
2021/12/04 06:26:06;;;;;;;7.13;6.30;;;;;;;1.21;100.00;97470.19;5154115;27;20197;-82
2021/12/04 06:28:34;;;;;;;9.30;6.97;;;;;;;1.18;100.00;97470.38;5155812;27;20235;-82
2021/12/04 06:31:03;;;;;;;8.03;6.93;;;;;;;1.13;100.00;97468.00;5155181;27;20212;-82
2021/12/04 06:33:32;;;;;;;8.93;7.10;;;;;;;1.11;100.00;97470.69;5150368;27;20197;-83
2021/12/04 06:36:01;;;;;;;8.70;6.63;;;;;;;1.22;100.00;97461.44;5148552;27;20194;-82
2021/12/04 06:38:29;;;;;;;8.87;7.17;;;;;;;1.18;100.00;97466.00;5152389;27;20667;-83
2021/12/04 06:40:59;;;;;;;9.87;7.67;;;;;;;1.25;100.00;97469.94;5150699;27;20194;-82
2021/12/04 06:43:28;;;;;;;8.10;6.60;;;;;;;1.15;100.00;97477.41;5156532;27;20182;-82
2021/12/04 06:46:01;;;;;;;8.60;7.30;;;;;;;1.18;100.00;97473.81;5154589;27;20225;-82
2021/12/04 06:48:36;;;;;;;10.80;7.27;;;;;;;1.21;100.00;97478.00;5154493;27;20214;-82
2021/12/04 06:51:10;;;;;;;9.50;7.67;;;;;;;1.25;100.00;97488.19;5153378;27;20197;-82
2021/12/04 06:53:42;;;;;;;9.57;7.10;;;;;;;1.26;100.00;97482.06;5156055;27;20197;-82
2021/12/04 06:56:13;;;;;;;11.70;8.23;;;;;;;1.23;100.00;97469.19;5148838;27;20201;-82
2021/12/04 06:58:41;;;;;;;15.50;9.00;;;;;;;1.15;100.00;97466.97;5158673;27;20194;-82
2021/12/04 07:01:11;;;;;;;18.03;9.27;;;;;;;1.31;100.00;97460.94;5148438;27;20285;-82
2021/12/04 07:03:40;;;;;;;10.97;8.17;;;;;;;1.29;100.00;97466.25;5158397;27;20201;-82
2021/12/04 07:06:09;;;;;;;11.57;8.77;;;;;;;1.26;100.00;97456.00;5148612;27;20194;-83
2021/12/04 07:08:37;;;;;;;12.67;8.97;;;;;;;1.16;100.00;97470.44;5152592;27;20241;-82
2021/12/04 07:11:06;;;;;;;10.90;8.50;;;;;;;1.35;100.00;97471.16;5150700;27;20246;-82
2021/12/04 07:13:38;;;;;;;12.83;9.40;;;;;;;1.30;100.00;97474.91;5114995;28;20199;-83
2021/12/04 07:16:08;;;;;;;10.53;7.90;;;;;;;1.32;100.00;97484.34;5110829;28;20232;-82
2021/12/04 07:18:38;;;;;;;18.23;9.90;;;;;;;1.32;100.00;97480.88;5112233;28;20278;-82
2021/12/04 07:21:09;;;;;;;13.60;9.80;;;;;;;1.38;100.00;97483.16;5114679;28;20203;-83
2021/12/04 07:23:38;;;;;;;22.37;10.57;;;;;;;1.22;100.00;97477.09;5112616;28;20203;-83
2021/12/04 07:26:07;;;;;;;16.60;9.63;;;;;;;1.34;100.00;97466.81;5111703;28;20195;-82
2021/12/04 07:28:39;;;;;;;30.97;10.43;;;;;;;1.31;100.00;97467.00;5114616;28;20215;-82
2021/12/04 07:31:07;;;;;;;15.03;10.67;;;;;;;1.35;100.00;97458.09;5118122;27;20236;-83
2021/12/04 07:33:36;;;;;;;20.20;9.83;;;;;;;1.35;100.00;97454.63;5152334;27;20204;-83
2021/12/04 07:36:05;;;;;;;19.43;10.20;;;;;;;1.42;100.00;97453.38;5156420;27;20197;-83
2021/12/04 07:38:34;;;;;;;22.07;11.10;;;;;;;1.36;100.00;97438.09;5156063;27;20194;-83
2021/12/04 07:41:04;;;;;;;20.33;11.60;;;;;;;1.41;100.00;97439.50;5156691;27;20190;-82
2021/12/04 07:43:32;;;;;;;31.23;11.47;;;;;;;1.35;100.00;97437.25;5157941;27;20193;-83
2021/12/04 07:46:02;;;;;;;27.53;10.83;;;;;;;1.46;100.00;97433.22;5154646;27;20201;-82
2021/12/04 07:48:30;;;;;;;23.30;11.13;;;;;;;1.29;100.00;97431.50;5153153;27;20221;-83
2021/12/04 07:51:02;;;;;;;26.13;11.13;;;;;;;1.40;100.00;97435.22;5157815;27;20647;-82
2021/12/04 07:53:30;;;;;;;20.77;11.70;;;;;;;1.44;100.00;97446.31;5153242;27;20640;-82
2021/12/04 07:55:59;;;;;;;19.00;11.50;;;;;;;1.55;100.00;97440.53;5150845;27;20190;-83
2021/12/04 07:58:27;;;;;;;24.60;12.23;;;;;;;1.55;100.00;97454.41;5154555;27;20208;-83
2021/12/04 08:00:57;;;;;;;20.27;11.83;;;;;;;1.59;100.00;97447.25;5153299;27;20305;-83
2021/12/04 08:03:27;;;;;;;19.73;10.83;;;;;;;1.53;100.00;97445.78;5146764;27;20196;-83
2021/12/04 08:05:56;;;;;;;16.03;10.03;;;;;;;1.64;100.00;97438.25;5157817;27;20194;-83
2021/12/04 08:08:24;;;;;;;17.87;10.77;;;;;;;1.68;100.00;97426.69;5155778;27;20210;-83
2021/12/04 08:10:53;;;;;;;16.73;10.17;;;;;;;1.74;100.00;97428.13;5152694;27;20190;-82
2021/12/04 08:13:22;;;;;;;18.37;11.07;;;;;;;1.77;100.00;97422.72;5150469;27;20201;-82
2021/12/04 08:15:50;;;;;;;18.90;11.13;;;;;;;1.73;100.00;97426.41;5156811;27;20190;-82
2021/12/04 08:18:19;;;;;;;18.17;10.83;;;;;;;1.81;100.00;97433.81;5151683;27;20197;-83
2021/12/04 08:20:51;;;;;;;19.17;9.97;;;;;;;1.83;100.00;97422.34;5153275;27;20193;-82
2021/12/04 08:23:21;;;;;;;21.13;10.83;;;;;;;1.88;100.00;97438.63;5155302;27;20209;-84
2021/12/04 08:25:50;;;;;;;20.43;10.40;;;;;;;1.89;100.00;97431.63;5155619;27;20190;-82
2021/12/04 08:28:19;;;;;;;20.13;11.23;;;;;;;1.81;100.00;97436.44;5155860;27;20201;-83
2021/12/04 08:30:47;;;;;;;17.13;9.17;;;;;;;1.79;100.00;97438.28;5154046;27;20213;-82
2021/12/04 08:33:16;;;;;;;13.80;9.53;;;;;;;1.89;100.00;97426.41;5149931;27;20254;-82
2021/12/04 08:35:45;;;;;;;17.10;10.37;;;;;;;1.89;100.00;97423.78;5154556;27;20190;-83
2021/12/04 08:38:16;;;;;;;15.33;10.00;;;;;;;1.88;100.00;97424.72;5155278;27;20186;-82
2021/12/04 08:40:45;;;;;;;18.47;10.07;;;;;;;1.82;100.00;97425.91;5152718;27;20197;-83
2021/12/04 08:43:14;;;;;;;18.10;10.87;;;;;;;1.73;100.00;97423.81;5149939;27;20220;-83
2021/12/04 08:45:43;;;;;;;14.83;9.03;;;;;;;1.95;100.00;97428.69;5156580;27;20185;-83
2021/12/04 08:48:13;;;;;;;22.43;14.97;;;;;;;1.87;100.00;97430.88;5151246;27;20186;-82
2021/12/04 08:50:43;;;;;;;14.93;8.97;;;;;;;1.90;100.00;97425.47;5143726;27;20217;-82
2021/12/04 08:53:12;;;;;;;17.00;9.80;;;;;;;1.89;100.00;97429.00;5152176;27;20193;-81
2021/12/04 08:55:43;;;;;;;15.90;10.40;;;;;;;1.95;100.00;97419.06;5147098;27;20333;-82
2021/12/04 08:58:13;;;;;;;15.10;9.27;;;;;;;2.07;100.00;97427.13;5153666;27;20728;-82
2021/12/04 09:00:48;;;;;;;15.93;8.43;;;;;;;2.22;100.00;97427.09;5138617;27;20228;-82
2021/12/04 09:03:19;;;;;;;17.50;9.90;;;;;;;2.17;100.00;97417.81;5048025;28;20222;-82
2021/12/04 09:05:50;;;;;;;14.87;8.87;;;;;;;2.14;100.00;97424.06;5034409;28;20674;-82
2021/12/04 09:08:21;;;;;;;17.60;10.33;;;;;;;2.21;100.00;97433.22;5050304;27;20288;-82
2021/12/04 09:10:52;;;;;;;18.30;11.97;;;;;;;2.37;100.00;97429.72;5041788;27;20221;-83
2021/12/04 09:13:22;;;;;;;12.33;8.57;;;;;;;2.36;100.00;97438.50;5048555;28;20208;-83
2021/12/04 09:15:51;;;;;;;17.03;8.77;;;;;;;2.11;100.00;97434.69;5052640;27;20189;-82
2021/12/04 09:18:19;;;;;;;17.07;9.90;;;;;;;2.21;100.00;97427.16;5050154;28;20196;-82
2021/12/04 09:20:49;;;;;;;19.70;11.57;;;;;;;2.06;100.00;97421.06;5042172;28;20206;-82
2021/12/04 09:23:20;;;;;;;15.67;9.90;;;;;;;2.25;100.00;97415.63;5050923;28;20233;-82
2021/12/04 09:25:52;;;;;;;13.27;8.77;;;;;;;2.37;100.00;97416.66;5054776;27;20197;-82
2021/12/04 09:28:25;;;;;;;11.93;7.77;;;;;;;2.37;100.00;97416.66;5041425;28;20194;-82
2021/12/04 10:04:35;;;;;;;13.47;8.43;;;;;;;2.84;100.00;97374.59;4994941;28;20198;-81
2021/12/04 10:21:14;;;;;;;9.03;6.77;;;;;;;2.91;100.00;97351.53;5035960;27;20208;-80
2021/12/04 10:35:15;;;;;;;9.43;8.20;;;;;;;3.11;100.00;97324.97;5047237;28;20200;-81
2021/12/04 10:37:56;;;;;;;9.73;8.07;;;;;;;3.02;100.00;97325.56;5054491;28;20246;-81
2021/12/04 10:40:33;;;;;;;12.03;8.80;;;;;;;2.92;100.00;97321.84;5043459;28;20194;-81
2021/12/04 10:43:05;;;;;;;10.93;8.20;;;;;;;3.03;100.00;97308.94;5053548;28;20197;-81
2021/12/04 10:45:37;;;;;;;9.63;7.07;;;;;;;3.10;100.00;97308.44;5054319;28;20201;-81
2021/12/04 10:48:14;;;;;;;10.03;7.33;;;;;;;2.99;100.00;97305.69;5050684;28;20204;-81
2021/12/04 10:50:48;;;;;;;10.73;8.00;;;;;;;2.99;100.00;97299.59;5050187;28;20213;-81
2021/12/04 10:53:21;;;;;;;12.40;7.30;;;;;;;3.00;100.00;97296.06;5028770;28;20202;-81
2021/12/04 10:55:54;;;;;;;12.20;8.40;;;;;;;3.04;100.00;97292.31;5033137;28;20194;-80
2021/12/04 11:01:27;;;;;;;9.50;7.60;;;;;;;3.13;100.00;97283.88;5054275;28;20229;-81
2021/12/04 11:04:05;;;;;;;12.97;9.00;;;;;;;3.16;100.00;97281.88;5053419;28;20245;-81
2021/12/04 11:24:00;;;;;;;15.67;9.13;;;;;;;3.05;100.00;97231.22;5051431;28;20250;-83
2021/12/04 11:26:49;;;;;;;9.47;8.00;;;;;;;3.12;100.00;97232.50;5073206;27;20192;-83
2021/12/04 11:35:33;;;;;;;8.30;7.40;;;;;;;3.26;100.00;97193.19;5076474;28;20200;-83
2021/12/04 11:43:49;;;;;;;11.10;7.90;;;;;;;3.17;100.00;97168.47;5084497;28;20278;-82
2021/12/04 11:46:23;;;;;;;11.40;8.50;;;;;;;3.18;100.00;97166.69;5075989;28;20196;-83
2021/12/04 11:49:00;;;;;;;9.03;6.40;;;;;;;3.16;100.00;97152.88;5070196;28;20287;-83
2021/12/04 11:51:28;;;;;;;10.83;7.80;;;;;;;3.17;100.00;97150.16;5068410;28;20229;-83
2021/12/04 11:54:12;;;;;;;12.60;7.93;;;;;;;3.23;100.00;97145.47;5069197;28;20207;-82
2021/12/04 11:56:42;;;;;;;10.97;7.37;;;;;;;3.13;100.00;97137.41;5051951;28;20208;-83
2021/12/04 11:59:10;;;;;;;11.83;7.37;;;;;;;3.11;100.00;97137.53;5054528;28;20212;-82
2021/12/04 12:01:39;;;;;;;10.80;7.80;;;;;;;3.13;100.00;97147.88;5073224;28;20297;-84
2021/12/04 12:04:11;;;;;;;18.23;12.83;;;;;;;3.05;100.00;97158.84;5063033;27;20361;-83
2021/12/04 12:06:42;;;;;;;28.90;17.07;;;;;;;3.10;100.00;97167.22;5041344;28;20186;-83
2021/12/04 12:09:15;;;;;;;17.43;13.27;;;;;;;3.07;100.00;97138.66;5043344;28;20209;-83
2021/12/04 12:11:53;;;;;;;10.60;8.93;;;;;;;3.15;100.00;97138.16;5043643;28;20267;-83
2021/12/04 12:14:23;;;;;;;9.27;7.23;;;;;;;3.22;100.00;97134.19;5059304;28;20201;-82
2021/12/04 12:16:55;;;;;;;11.90;7.30;;;;;;;3.15;100.00;97132.91;5020795;28;20204;-83
2021/12/04 12:19:28;;;;;;;9.23;6.70;;;;;;;3.06;100.00;97128.28;5044122;28;20213;-83
2021/12/04 12:22:01;;;;;;;8.60;6.97;;;;;;;3.11;100.00;97121.84;5045453;28;20292;-84
2021/12/04 12:27:46;;;;;;;11.30;8.20;;;;;;;3.05;100.00;97126.63;5026412;28;20201;-84
2021/12/04 12:33:23;;;;;;;12.87;8.60;;;;;;;3.31;100.00;97101.34;5033729;28;20197;-84
2021/12/04 12:36:02;;;;;;;11.77;7.90;;;;;;;3.38;100.00;97095.59;5039727;28;20208;-83
2021/12/04 12:38:53;;;;;;;9.27;7.43;;;;;;;3.37;100.00;97088.66;5043272;28;20186;-83
2021/12/04 12:41:29;;;;;;;16.07;10.00;;;;;;;3.22;100.00;97086.28;5072146;28;20196;-83
2021/12/04 12:44:11;;;;;;;10.47;8.20;;;;;;;3.31;100.00;97096.13;5070276;28;20331;-84
2021/12/04 12:46:42;;;;;;;12.73;8.47;;;;;;;3.20;100.00;97083.75;5076005;28;20267;-84
2021/12/04 12:49:24;;;;;;;9.57;7.30;;;;;;;3.17;100.00;97076.94;5089295;28;20224;-83
2021/12/04 12:51:57;;;;;;;14.13;8.57;;;;;;;3.26;100.00;97092.97;5097431;28;20225;-83
2021/12/04 12:54:36;;;;;;;11.47;7.37;;;;;;;3.27;100.00;97085.00;5109601;28;20262;-83
2021/12/04 12:57:10;;;;;;;11.70;7.60;;;;;;;3.37;100.00;97085.22;5115868;28;20250;-83
2021/12/04 12:59:45;;;;;;;10.97;7.27;;;;;;;3.34;100.00;97086.25;5069541;28;20683;-84
2021/12/04 13:13:34;;;;;;;7.80;6.10;;;;;;;3.42;100.00;97070.88;5074162;28;20191;-82
2021/12/04 13:16:08;;;;;;;11.37;7.70;;;;;;;3.57;100.00;97062.91;5068997;28;20192;-83
2021/12/04 13:18:37;;;;;;;9.50;7.00;;;;;;;3.57;100.00;97060.28;5068744;28;20219;-83
2021/12/04 13:21:10;;;;;;;8.53;6.80;;;;;;;3.54;100.00;97055.28;5068794;28;20192;-83
2021/12/04 13:23:40;;;;;;;9.40;7.13;;;;;;;3.57;100.00;97042.84;5069288;28;20200;-83
2021/12/04 13:26:10;;;;;;;10.60;7.87;;;;;;;3.57;100.00;97039.34;5068645;28;20204;-83
2021/12/04 13:28:43;;;;;;;10.13;7.73;;;;;;;3.52;100.00;97029.22;5073664;28;20325;-84
2021/12/04 13:31:18;;;;;;;19.20;13.33;;;;;;;3.60;100.00;97023.44;5069190;28;20215;-83
2021/12/04 13:33:50;;;;;;;10.03;8.13;;;;;;;3.50;100.00;97023.25;5067484;28;20207;-83
2021/12/04 13:36:21;;;;;;;11.73;7.33;;;;;;;3.59;100.00;97020.00;5066031;28;20211;-84
2021/12/04 13:38:53;;;;;;;11.20;7.00;;;;;;;3.55;100.00;97013.28;5066174;28;20196;-83
2021/12/04 13:41:21;;;;;;;17.13;9.20;;;;;;;3.51;100.00;97022.31;5062339;28;20201;-84
2021/12/04 13:43:55;;;;;;;11.67;7.00;;;;;;;3.59;100.00;97024.41;5065156;28;20203;-83
2021/12/04 13:46:24;;;;;;;13.57;8.13;;;;;;;3.48;100.00;97029.56;5069005;28;20195;-83
2021/12/04 13:49:00;;;;;;;18.27;10.53;;;;;;;3.57;100.00;97021.03;5067983;28;20427;-84
2021/12/04 13:51:28;;;;;;;12.40;7.40;;;;;;;3.61;100.00;97017.28;5064502;28;20220;-83
2021/12/04 13:54:01;;;;;;;21.33;9.87;;;;;;;3.58;100.00;97007.88;5068201;28;20192;-83
2021/12/04 13:56:31;;;;;;;14.47;7.83;;;;;;;3.51;100.00;97004.00;5056910;27;20203;-83
2021/12/04 13:59:03;;;;;;;19.30;10.27;;;;;;;3.55;100.00;97007.22;5037859;28;20201;-84
2021/12/04 14:01:41;;;;;;;11.63;6.37;;;;;;;3.55;100.00;97007.22;5047658;28;20220;-83
2021/12/04 14:04:17;;;;;;;7.33;5.60;;;;;;;3.63;100.00;97004.91;5050637;27;20201;-83
2021/12/04 14:06:54;;;;;;;7.23;5.47;;;;;;;3.60;100.00;97005.13;5050113;28;20271;-83
2021/12/04 14:09:23;;;;;;;9.80;6.60;;;;;;;3.50;100.00;96997.09;5019168;28;20193;-88
2021/12/04 14:11:55;;;;;;;9.20;6.10;;;;;;;3.53;100.00;96993.41;5024161;28;20232;-87
2021/12/04 14:14:30;;;;;;;20.73;11.00;;;;;;;3.58;100.00;96986.94;5038214;28;20189;-87
2021/12/04 14:17:06;;;;;;;9.70;7.37;;;;;;;3.44;100.00;96987.06;5068482;28;20189;-88
2021/12/04 14:19:38;;;;;;;8.93;7.40;;;;;;;3.30;100.00;96985.41;5057654;28;20196;-87
2021/12/04 14:22:11;;;;;;;8.00;6.50;;;;;;;3.42;100.00;96988.94;5059289;28;20218;-88